Weather at Banning Municipal Airport

Public forecast

Using degrees Fahrenheit for public forecast. Weather courtesy of forecast.io.

Closest aviation weather report (METAR) to Banning Municipal Airport

Closest report is Palm Springs International Airport, 18.0 nm (33.4 km) ESE. Retrieved 2020/11/28 20:53 UTC (2 hours ago):

KPSP 282053Z 00000KT 10SM CLR 23/M07 A3017 RMK AO2 SLP215 T02281072 56034

Closest aviation forecast (TAF) to Banning Municipal Airport

Closest forecast is Palm Springs International Airport, 18.0 nm (33.4 km) ESE. Retrieved 2020/11/28 18:28 UTC (4 hours ago):

TAF KPSP 281726Z 2818/2918 VRB03KT P6SM SKC FM281900 12004KT P6SM SKC FM290300 32006KT P6SM SKC